sensor_id;sensor_type;location;lat;lon;timestamp;temperature;humidity
7240;DHT22;3661;53.288;10.458;2023-04-15T12:03:27;14.10;99.90
7240;DHT22;3661;53.288;10.458;2023-04-15T12:06:17;14.00;99.90
7240;DHT22;3661;53.288;10.458;2023-04-15T12:09:09;14.00;99.90
7240;DHT22;3661;53.288;10.458;2023-04-15T12:11:57;14.00;99.90
7240;DHT22;3661;53.288;10.458;2023-04-15T12:14:33;14.00;99.90
7240;DHT22;3661;53.288;10.458;2023-04-15T12:24:13;13.90;99.90
7240;DHT22;3661;53.288;10.458;2023-04-15T12:27:30;13.90;99.90
7240;DHT22;3661;53.288;10.458;2023-04-15T12:30:16;13.90;99.90
7240;DHT22;3661;53.288;10.458;2023-04-15T12:32:51;13.90;99.90
7240;DHT22;3661;53.288;10.458;2023-04-15T12:52:45;13.90;99.90
7240;DHT22;3661;53.288;10.458;2023-04-15T12:55:17;13.90;99.90
7240;DHT22;3661;53.288;10.458;2023-04-15T14:37:21;13.60;99.90
7240;DHT22;3661;53.288;10.458;2023-04-15T14:39:57;13.60;99.90
7240;DHT22;3661;53.288;10.458;2023-04-15T14:42:40;13.60;99.90
7240;DHT22;3661;53.288;10.458;2023-04-15T14:48:56;13.70;99.90
7240;DHT22;3661;53.288;10.458;2023-04-15T14:51:39;13.70;99.90
7240;DHT22;3661;53.288;10.458;2023-04-15T14:54:13;13.70;99.90
7240;DHT22;3661;53.288;10.458;2023-04-15T14:56:48;13.70;99.90
7240;DHT22;3661;53.288;10.458;2023-04-15T14:59:37;13.70;99.90
7240;DHT22;3661;53.288;10.458;2023-04-15T15:02:26;13.70;99.90
7240;DHT22;3661;53.288;10.458;2023-04-15T15:05:08;13.70;99.90
7240;DHT22;3661;53.288;10.458;2023-04-15T15:07:41;13.70;99.90
7240;DHT22;3661;53.288;10.458;2023-04-15T15:10:25;13.70;99.90
7240;DHT22;3661;53.288;10.458;2023-04-15T15:13:04;13.70;99.90
7240;DHT22;3661;53.288;10.458;2023-04-15T15:15:46;13.70;99.90
7240;DHT22;3661;53.288;10.458;2023-04-15T15:18:21;13.70;99.90
7240;DHT22;3661;53.288;10.458;2023-04-15T15:20:57;13.70;99.90
7240;DHT22;3661;53.288;10.458;2023-04-15T15:23:29;13.70;99.90
7240;DHT22;3661;53.288;10.458;2023-04-15T15:26:22;13.80;99.90
7240;DHT22;3661;53.288;10.458;2023-04-15T15:28:56;13.80;99.90
7240;DHT22;3661;53.288;10.458;2023-04-15T15:31:33;13.80;99.90
7240;DHT22;3661;53.288;10.458;2023-04-15T15:34:10;13.90;99.90
7240;DHT22;3661;53.288;10.458;2023-04-15T15:36:49;13.90;99.90
7240;DHT22;3661;53.288;10.458;2023-04-15T15:39:30;14.00;99.90
7240;DHT22;3661;53.288;10.458;2023-04-15T15:42:07;14.10;99.90
7240;DHT22;3661;53.288;10.458;2023-04-15T15:44:41;14.10;99.90
7240;DHT22;3661;53.288;10.458;2023-04-15T15:47:16;14.20;99.90
7240;DHT22;3661;53.288;10.458;2023-04-15T15:49:59;14.30;99.90
7240;DHT22;3661;53.288;10.458;2023-04-15T15:52:38;14.30;99.90
7240;DHT22;3661;53.288;10.458;2023-04-15T15:55:13;14.40;99.90
7240;DHT22;3661;53.288;10.458;2023-04-15T15:57:53;14.40;99.90
7240;DHT22;3661;53.288;10.458;2023-04-15T16:00:26;14.40;99.90
7240;DHT22;3661;53.288;10.458;2023-04-15T16:03:05;14.40;99.90
7240;DHT22;3661;53.288;10.458;2023-04-15T16:05:44;14.40;99.90
7240;DHT22;3661;53.288;10.458;2023-04-15T16:08:24;14.40;99.90
7240;DHT22;3661;53.288;10.458;2023-04-15T16:10:58;14.40;99.90
7240;DHT22;3661;53.288;10.458;2023-04-15T16:13:34;14.40;99.90
7240;DHT22;3661;53.288;10.458;2023-04-15T16:16:10;14.30;99.90
7240;DHT22;3661;53.288;10.458;2023-04-15T16:18:53;14.30;99.90
7240;DHT22;3661;53.288;10.458;2023-04-15T16:21:30;14.30;99.90
7240;DHT22;3661;53.288;10.458;2023-04-15T16:24:02;14.30;99.90
7240;DHT22;3661;53.288;10.458;2023-04-15T16:26:35;14.20;99.90
7240;DHT22;3661;53.288;10.458;2023-04-15T16:29:09;14.20;99.90
7240;DHT22;3661;53.288;10.458;2023-04-15T16:32:01;14.20;99.90
7240;DHT22;3661;53.288;10.458;2023-04-15T16:34:35;14.10;99.90
7240;DHT22;3661;53.288;10.458;2023-04-15T16:37:24;14.10;99.90
7240;DHT22;3661;53.288;10.458;2023-04-15T16:40:05;14.00;99.90
7240;DHT22;3661;53.288;10.458;2023-04-15T16:42:37;13.90;99.90
7240;DHT22;3661;53.288;10.458;2023-04-15T16:45:17;13.90;99.90
7240;DHT22;3661;53.288;10.458;2023-04-15T16:47:49;13.80;99.90
7240;DHT22;3661;53.288;10.458;2023-04-15T16:50:24;13.70;99.90
7240;DHT22;3661;53.288;10.458;2023-04-15T16:52:59;13.70;99.90
7240;DHT22;3661;53.288;10.458;2023-04-15T16:55:33;13.60;99.90
7240;DHT22;3661;53.288;10.458;2023-04-15T16:58:05;13.50;99.90
7240;DHT22;3661;53.288;10.458;2023-04-15T17:00:39;13.50;99.90
7240;DHT22;3661;53.288;10.458;2023-04-15T17:03:11;13.40;99.90
7240;DHT22;3661;53.288;10.458;2023-04-15T17:05:43;13.30;99.90
7240;DHT22;3661;53.288;10.458;2023-04-15T17:08:15;13.30;99.90
7240;DHT22;3661;53.288;10.458;2023-04-15T17:10:47;13.20;99.90
7240;DHT22;3661;53.288;10.458;2023-04-15T17:13:21;13.20;99.90
7240;DHT22;3661;53.288;10.458;2023-04-15T17:15:54;13.10;99.90
7240;DHT22;3661;53.288;10.458;2023-04-15T17:18:26;13.10;99.90
7240;DHT22;3661;53.288;10.458;2023-04-15T17:20:58;13.10;99.90
7240;DHT22;3661;53.288;10.458;2023-04-15T17:23:30;13.00;99.90
7240;DHT22;3661;53.288;10.458;2023-04-15T17:26:03;13.00;99.90
7240;DHT22;3661;53.288;10.458;2023-04-15T17:28:35;13.00;99.90
7240;DHT22;3661;53.288;10.458;2023-04-15T17:31:08;12.90;99.90
7240;DHT22;3661;53.288;10.458;2023-04-15T17:33:41;12.80;99.90
7240;DHT22;3661;53.288;10.458;2023-04-15T17:36:15;12.80;99.90
7240;DHT22;3661;53.288;10.458;2023-04-15T17:38:47;12.70;99.90
7240;DHT22;3661;53.288;10.458;2023-04-15T17:41:22;12.60;99.90
7240;DHT22;3661;53.288;10.458;2023-04-15T17:43:54;12.50;99.90
7240;DHT22;3661;53.288;10.458;2023-04-15T17:46:28;12.50;99.90
7240;DHT22;3661;53.288;10.458;2023-04-15T17:49:01;12.40;99.90
7240;DHT22;3661;53.288;10.458;2023-04-15T17:51:35;12.40;99.90
7240;DHT22;3661;53.288;10.458;2023-04-15T17:54:07;12.30;99.90
7240;DHT22;3661;53.288;10.458;2023-04-15T17:56:40;12.20;99.90
7240;DHT22;3661;53.288;10.458;2023-04-15T17:59:12;12.20;99.90
7240;DHT22;3661;53.288;10.458;2023-04-15T18:01:46;12.20;99.90
7240;DHT22;3661;53.288;10.458;2023-04-15T18:04:18;12.10;99.90
7240;DHT22;3661;53.288;10.458;2023-04-15T18:06:50;12.00;99.90
7240;DHT22;3661;53.288;10.458;2023-04-15T18:09:22;12.00;99.90
7240;DHT22;3661;53.288;10.458;2023-04-15T18:11:54;12.00;99.90
